createdAt,value
2018-01-01T00:03:46.355Z,12.28
2018-01-01T00:08:47.784Z,12.36
2018-01-01T00:13:49.142Z,12.37
2018-01-01T00:18:50.466Z,12.37
2018-01-01T00:23:51.832Z,12.35
2018-01-01T00:28:53.202Z,12.27
2018-01-01T00:33:55.239Z,12.54
2018-01-01T00:38:56.812Z,12.58
2018-01-01T00:44:02.228Z,12.49
2018-01-01T00:49:04.916Z,12.44
2018-01-01T00:54:06.254Z,12.52
2018-01-01T00:59:07.647Z,12.45
2018-01-01T01:04:08.985Z,12.26
2018-01-01T01:09:10.335Z,12.23
2018-01-01T01:14:12.371Z,12.26
2018-01-01T01:19:13.718Z,12.31
2018-01-01T01:24:15.024Z,12.13
2018-01-01T01:29:17.099Z,12.08
2018-01-01T01:34:18.447Z,12.19
2018-01-01T01:39:19.800Z,12.17
2018-01-01T01:44:21.881Z,12.12
2018-01-01T01:49:24.063Z,12.15
2018-01-01T01:54:29.711Z,12.13
2018-01-01T01:59:34.737Z,12.03
2018-01-01T02:04:36.359Z,12.06
2018-01-01T02:09:37.727Z,11.93
2018-01-01T02:14:39.066Z,11.94
2018-01-01T02:19:40.439Z,11.96
2018-01-01T02:24:41.829Z,11.87
2018-01-01T02:29:43.208Z,11.78
2018-01-01T02:34:44.552Z,11.62
2018-01-01T02:39:45.883Z,11.52
2018-01-01T02:44:47.242Z,11.45
2018-01-01T02:49:48.602Z,11.47
2018-01-01T02:54:50.700Z,11.68
2018-01-01T02:59:52.789Z,11.65
2018-01-01T03:04:54.135Z,11.56
2018-01-01T03:10:01.889Z,11.49
2018-01-01T03:15:05.071Z,11.51
2018-01-01T03:20:07.216Z,11.69
2018-01-01T03:25:08.659Z,11.64
2018-01-01T03:30:10.040Z,11.92
2018-01-01T03:35:11.410Z,11.91
2018-01-01T03:40:12.735Z,11.72
2018-01-01T03:45:14.067Z,11.79
2018-01-01T03:50:16.235Z,11.69
2018-01-01T03:55:17.575Z,11.71
2018-01-01T04:00:18.922Z,11.65
2018-01-01T04:05:21.006Z,11.62
2018-01-01T04:10:22.362Z,11.52
2018-01-01T04:15:23.723Z,11.43
2018-01-01T04:20:31.102Z,11.35
2018-01-01T04:25:33.411Z,11.35
2018-01-01T04:30:35.476Z,11.34
2018-01-01T04:35:37.019Z,11.29
2018-01-01T04:40:38.451Z,11.26
2018-01-01T04:45:39.839Z,11.19
2018-01-01T04:50:41.921Z,11.38
2018-01-01T04:55:43.252Z,11.30
2018-01-01T05:00:44.587Z,11.04
2018-01-01T05:05:45.911Z,11.03
2018-01-01T05:10:47.996Z,11.09
2018-01-01T05:15:49.327Z,10.96
2018-01-01T05:20:50.660Z,11.03
2018-01-01T05:25:52.020Z,11.22
2018-01-01T05:30:53.376Z,11.22
2018-01-01T05:36:02.244Z,11.03
2018-01-01T05:41:06.792Z,10.86
2018-01-01T05:46:08.768Z,10.84
2018-01-01T05:51:10.110Z,10.86
2018-01-01T05:56:12.163Z,10.94
2018-01-01T06:01:13.536Z,10.93
2018-01-01T06:06:14.883Z,10.92
2018-01-01T06:11:23.369Z,10.93
2018-01-01T06:16:26.885Z,10.93
2018-01-01T06:21:28.880Z,10.99
2018-01-01T06:26:30.205Z,10.91
2018-01-01T06:31:31.594Z,10.84
2018-01-01T06:36:32.941Z,10.82
2018-01-01T06:41:34.286Z,10.74
2018-01-01T06:46:35.599Z,10.53
2018-01-01T06:51:36.960Z,10.46
2018-01-01T06:56:38.308Z,10.30
2018-01-01T07:01:39.691Z,10.22
2018-01-01T07:06:41.052Z,10.14
2018-01-01T07:11:42.383Z,10.11
2018-01-01T07:16:43.716Z,9.96
2018-01-01T07:21:47.000Z,9.94
2018-01-01T07:26:51.193Z,9.91
2018-01-01T07:31:53.808Z,9.73
2018-01-01T07:36:56.207Z,9.64
2018-01-01T07:41:58.292Z,9.65
2018-01-01T07:46:59.708Z,9.62
2018-01-01T07:52:01.054Z,9.53
2018-01-01T07:57:02.428Z,9.68
2018-01-01T08:02:03.770Z,9.64
2018-01-01T08:07:05.836Z,9.86
2018-01-01T08:12:07.198Z,9.79
2018-01-01T08:17:08.594Z,9.76
2018-01-01T08:22:09.940Z,9.61
2018-01-01T08:27:12.019Z,9.83
2018-01-01T08:32:13.626Z,9.76
2018-01-01T08:37:14.971Z,9.73
2018-01-01T08:42:21.295Z,9.87
2018-01-01T08:47:23.849Z,9.75
2018-01-01T08:52:26.705Z,9.78
2018-01-01T08:57:28.175Z,9.62
2018-01-01T09:02:29.521Z,9.43
2018-01-01T09:07:31.609Z,9.38
2018-01-01T09:12:33.703Z,9.30
2018-01-01T09:17:35.023Z,9.50
2018-01-01T09:22:36.396Z,9.71
2018-01-01T09:27:37.737Z,9.78
2018-01-01T09:32:39.071Z,9.83
2018-01-01T09:37:40.516Z,9.66
2018-01-01T09:42:41.856Z,9.55
2018-01-01T09:47:43.215Z,9.49
2018-01-01T09:52:44.595Z,9.38
2018-01-01T09:57:45.978Z,9.40
2018-01-01T10:02:51.084Z,9.55
2018-01-01T10:07:53.641Z,9.54
2018-01-01T10:12:56.612Z,9.52
2018-01-01T10:17:58.018Z,9.43
2018-01-01T10:22:59.404Z,9.56
2018-01-01T10:28:00.748Z,9.61
2018-01-01T10:33:02.109Z,9.84
2018-01-01T10:38:04.256Z,9.85
2018-01-01T10:43:05.628Z,9.86
2018-01-01T10:48:07.726Z,9.98
2018-01-01T10:53:09.821Z,10.19
2018-01-01T10:58:11.191Z,10.31
2018-01-01T11:03:12.514Z,10.37
2018-01-01T11:08:13.894Z,10.54
2018-01-01T11:13:15.266Z,10.70
2018-01-01T11:18:21.399Z,10.68
2018-01-01T11:23:26.295Z,10.85
2018-01-01T11:28:29.505Z,10.95
2018-01-01T11:33:30.876Z,11.09
2018-01-01T11:38:32.244Z,11.09
2018-01-01T11:43:33.592Z,11.14
2018-01-01T11:48:34.944Z,11.26
2018-01-01T11:53:36.281Z,11.48
2018-01-01T11:58:37.604Z,11.35
2018-01-01T12:03:38.951Z,11.64
2018-01-01T12:08:40.310Z,11.81
2018-01-01T12:13:41.663Z,12.16
2018-01-01T12:18:43.016Z,11.89
2018-01-01T12:23:44.356Z,12.07
2018-01-01T12:28:45.693Z,11.89
2018-01-01T12:33:53.985Z,11.75
2018-01-01T12:38:57.128Z,11.54
2018-01-01T12:43:59.263Z,11.59
2018-01-01T12:49:01.370Z,11.65
2018-01-01T12:54:02.758Z,11.72
2018-01-01T12:59:04.156Z,11.54
2018-01-01T13:04:06.230Z,11.49
2018-01-01T13:09:07.687Z,11.66
2018-01-01T13:14:09.071Z,12.19
2018-01-01T13:19:10.396Z,12.14
2018-01-01T13:24:11.756Z,11.87
2018-01-01T13:29:13.082Z,11.77
2018-01-01T13:34:14.427Z,11.38
2018-01-01T13:39:15.789Z,11.38
2018-01-01T13:44:22.008Z,11.58
2018-01-01T13:49:25.419Z,11.81
2018-01-01T13:54:26.949Z,11.81
2018-01-01T13:59:28.472Z,11.68
2018-01-01T14:04:29.839Z,11.40
2018-01-01T14:09:31.179Z,11.26
2018-01-01T14:14:32.516Z,11.03
2018-01-01T14:19:33.868Z,11.11
2018-01-01T14:24:35.240Z,10.85
2018-01-01T14:29:36.867Z,10.82
2018-01-01T14:34:38.339Z,10.78
2018-01-01T14:39:39.703Z,10.84
2018-01-01T14:44:41.052Z,11.06
2018-01-01T14:49:43.143Z,11.02
2018-01-01T14:54:44.792Z,11.19
2018-01-01T14:59:46.850Z,11.16
2018-01-01T15:04:48.230Z,10.92
2018-01-01T15:09:49.631Z,10.78
2018-01-01T15:14:50.994Z,10.57
2018-01-01T15:19:52.320Z,10.45
2018-01-01T15:24:54.427Z,10.27
2018-01-01T15:29:56.559Z,10.22
2018-01-01T15:34:58.847Z,10.15
2018-01-01T15:40:00.915Z,10.15
2018-01-01T15:45:02.264Z,10.06
2018-01-01T15:50:03.659Z,10.02
2018-01-01T15:55:05.001Z,9.99
2018-01-01T16:00:09.470Z,9.89
2018-01-01T16:05:11.917Z,9.98
2018-01-01T16:10:14.495Z,9.92
2018-01-01T16:15:16.427Z,9.99
2018-01-01T16:20:18.550Z,9.95
2018-01-01T16:25:19.903Z,9.93
2018-01-01T16:30:21.207Z,9.89
2018-01-01T16:35:23.323Z,9.81
2018-01-01T16:40:24.664Z,9.80
2018-01-01T16:45:26.207Z,9.71
2018-01-01T16:50:28.433Z,9.70
2018-01-01T16:55:29.862Z,9.69
2018-01-01T17:00:31.207Z,9.81
2018-01-01T17:05:32.568Z,9.96
2018-01-01T17:10:33.880Z,10.04
2018-01-01T17:15:35.227Z,10.03
2018-01-01T17:20:40.488Z,9.95
2018-01-01T17:25:42.872Z,9.91
2018-01-01T17:30:45.666Z,9.93
2018-01-01T17:35:47.207Z,10.02
2018-01-01T17:40:49.678Z,10.08
2018-01-01T17:45:51.803Z,10.14
2018-01-01T17:50:53.207Z,10.16
2018-01-01T17:55:54.608Z,10.11
2018-01-01T18:00:56.016Z,10.02
2018-01-01T18:05:57.493Z,10.12
2018-01-01T18:10:58.843Z,10.13
2018-01-01T18:16:01.071Z,10.16
2018-01-01T18:21:03.441Z,10.10
2018-01-01T18:26:04.822Z,10.07
2018-01-01T18:31:06.661Z,10.09
2018-01-01T18:36:14.965Z,10.10
2018-01-01T18:41:18.630Z,10.11
2018-01-01T18:46:20.103Z,10.08
2018-01-01T18:51:21.477Z,10.10
2018-01-01T18:56:22.831Z,10.07
2018-01-01T19:01:24.187Z,9.99
2018-01-01T19:06:25.522Z,9.94
2018-01-01T19:11:27.594Z,9.96
2018-01-01T19:16:29.174Z,9.97
2018-01-01T19:21:30.614Z,9.96
2018-01-01T19:26:32.680Z,9.94
2018-01-01T19:31:34.023Z,9.92
2018-01-01T19:36:35.364Z,9.88
2018-01-01T19:41:37.375Z,9.84
2018-01-01T19:46:42.389Z,9.81
2018-01-01T19:51:44.669Z,9.84
2018-01-01T19:56:46.527Z,9.86
2018-01-01T20:01:48.063Z,9.54
2018-01-01T20:06:50.164Z,9.91
2018-01-01T20:11:51.480Z,9.91
2018-01-01T20:16:53.747Z,9.89
2018-01-01T20:21:55.110Z,9.88
2018-01-01T20:26:56.462Z,9.81
2018-01-01T20:31:59.141Z,9.80
2018-01-01T20:37:00.503Z,9.84
2018-01-01T20:42:01.863Z,9.76
2018-01-01T20:47:03.370Z,9.76
2018-01-01T20:52:04.815Z,9.76
2018-01-01T20:57:06.182Z,9.82
2018-01-01T21:02:07.558Z,9.88
2018-01-01T21:07:08.891Z,9.87
2018-01-01T21:12:10.235Z,9.84
2018-01-01T21:17:12.307Z,9.81
2018-01-01T21:22:13.754Z,9.79
2018-01-01T21:27:15.228Z,9.74
2018-01-01T21:32:16.731Z,9.78
2018-01-01T21:37:18.057Z,9.64
2018-01-01T21:42:19.407Z,9.51
2018-01-01T21:47:23.535Z,9.24
2018-01-01T21:52:31.661Z,9.40
2018-01-01T21:57:35.751Z,9.40
2018-01-01T22:02:38.247Z,9.42
2018-01-01T22:07:43.925Z,9.45
2018-01-01T22:12:45.776Z,9.21
2018-01-01T22:17:47.241Z,9.02
2018-01-01T22:22:48.559Z,8.94
2018-01-01T22:27:50.675Z,8.71
2018-01-01T22:32:58.055Z,8.70
2018-01-01T22:38:00.292Z,8.69
2018-01-01T22:43:02.046Z,8.54
2018-01-01T22:48:03.393Z,8.49
2018-01-01T22:53:05.525Z,8.50
2018-01-01T22:58:06.870Z,8.53
2018-01-01T23:03:08.220Z,8.72
2018-01-01T23:08:09.727Z,8.73
2018-01-01T23:13:11.057Z,8.64
2018-01-01T23:18:13.213Z,8.66
2018-01-01T23:23:14.543Z,8.78
2018-01-01T23:28:15.860Z,8.74
2018-01-01T23:33:17.220Z,8.73
2018-01-01T23:38:20.132Z,8.75
2018-01-01T23:43:21.495Z,8.68
2018-01-01T23:48:26.917Z,8.66
2018-01-01T23:53:30.749Z,8.60
2018-01-01T23:58:32.992Z,8.60
